Time;durP1;ratioP1;P1;durP2;ratioP2;P2;SDS_P1;SDS_P2;PMS_P1;PMS_P2;Temp;Humidity;BMP_temperature;BMP_pressure;BME280_temperature;BME280_humidity;BME280_pressure;Samples;Min_cycle;Max_cycle;Signal;HPM_P1;HPM_P2
2023/07/30 00:00:58;;;;;;;16.93;7.27;;;;;;;;;;5069967;28;20075;-59
2023/07/30 00:03:24;;;;;;;22.23;7.23;;;;;;;;;;5069691;28;20045;-60
2023/07/30 00:05:56;;;;;;;22.53;7.40;;;;;;;;;;5069656;28;20056;-59
2023/07/30 00:08:22;;;;;;;18.00;6.90;;;;;;;;;;5069702;28;20518;-59
2023/07/30 00:10:49;;;;;;;20.90;7.50;;;;;;;;;;5069303;28;20080;-59
2023/07/30 00:13:15;;;;;;;19.90;7.50;;;;;;;;;;5069474;28;20048;-59
2023/07/30 00:15:41;;;;;;;19.67;7.93;;;;;;;;;;5069474;28;20102;-59
2023/07/30 00:18:07;;;;;;;18.53;7.67;;;;;;;;;;5069758;28;20040;-59
2023/07/30 00:20:35;;;;;;;24.10;8.70;;;;;;;;;;5069622;28;20052;-59
2023/07/30 00:23:01;;;;;;;20.03;7.80;;;;;;;;;;5068493;28;20497;-59
2023/07/30 00:25:27;;;;;;;16.80;7.40;;;;;;;;;;5069378;28;20053;-59
2023/07/30 00:27:53;;;;;;;21.23;7.67;;;;;;;;;;5069372;28;20047;-59
2023/07/30 00:30:19;;;;;;;21.27;8.07;;;;;;;;;;5069106;28;20498;-59
2023/07/30 00:32:45;;;;;;;20.33;8.00;;;;;;;;;;5068667;28;20041;-60
2023/07/30 00:35:12;;;;;;;26.17;8.10;;;;;;;;;;5068787;28;20044;-60
2023/07/30 00:37:38;;;;;;;15.87;7.90;;;;;;;;;;5068710;28;20067;-59
2023/07/30 00:40:04;;;;;;;18.33;8.13;;;;;;;;;;5068824;28;20049;-60
2023/07/30 00:42:30;;;;;;;23.43;8.03;;;;;;;;;;5068771;28;20521;-60
2023/07/30 00:44:56;;;;;;;28.93;8.57;;;;;;;;;;5068949;28;20051;-59
2023/07/30 00:47:22;;;;;;;20.50;7.60;;;;;;;;;;5068652;28;20049;-59
2023/07/30 00:49:49;;;;;;;21.83;7.47;;;;;;;;;;5068691;28;20529;-60
2023/07/30 00:52:16;;;;;;;23.13;7.07;;;;;;;;;;5067827;28;20422;-60
2023/07/30 00:54:42;;;;;;;18.90;7.47;;;;;;;;;;5068078;28;20040;-59
2023/07/30 00:57:09;;;;;;;22.97;7.37;;;;;;;;;;5068287;28;20521;-60
2023/07/30 00:59:35;;;;;;;21.37;7.83;;;;;;;;;;5068734;28;20040;-59
2023/07/30 01:02:03;;;;;;;25.30;8.20;;;;;;;;;;5068686;28;20055;-59
2023/07/30 01:04:29;;;;;;;25.07;8.63;;;;;;;;;;5068655;28;20701;-59
2023/07/30 01:06:55;;;;;;;23.33;7.47;;;;;;;;;;5068581;28;20040;-60
2023/07/30 01:09:21;;;;;;;28.43;7.67;;;;;;;;;;5068361;28;20142;-59
2023/07/30 01:11:47;;;;;;;23.07;7.17;;;;;;;;;;5068490;28;20114;-59
2023/07/30 01:14:14;;;;;;;34.27;9.13;;;;;;;;;;5068216;28;20036;-59
2023/07/30 01:16:40;;;;;;;23.50;7.83;;;;;;;;;;5068519;28;20086;-59
2023/07/30 01:19:06;;;;;;;22.73;7.30;;;;;;;;;;5067917;28;20044;-59
2023/07/30 01:21:33;;;;;;;26.00;7.70;;;;;;;;;;5068197;28;20482;-60
2023/07/30 01:23:59;;;;;;;27.77;8.27;;;;;;;;;;5068047;28;20049;-59
2023/07/30 01:26:27;;;;;;;21.67;7.03;;;;;;;;;;5068285;28;20044;-59
2023/07/30 01:28:56;;;;;;;21.87;7.87;;;;;;;;;;5067706;28;20044;-60
2023/07/30 01:31:24;;;;;;;18.50;7.77;;;;;;;;;;5067961;28;20044;-59
2023/07/30 01:33:52;;;;;;;30.47;8.33;;;;;;;;;;5067920;28;20048;-59
2023/07/30 01:36:20;;;;;;;20.33;7.17;;;;;;;;;;5067815;28;20501;-59
2023/07/30 01:38:46;;;;;;;26.90;8.20;;;;;;;;;;5067747;28;20517;-60
2023/07/30 01:41:12;;;;;;;32.50;8.43;;;;;;;;;;5067950;28;20139;-59
2023/07/30 01:43:38;;;;;;;17.90;6.80;;;;;;;;;;5067815;28;20131;-59
2023/07/30 01:46:04;;;;;;;20.27;8.07;;;;;;;;;;5068213;28;20616;-60
2023/07/30 01:48:30;;;;;;;23.70;7.50;;;;;;;;;;5067744;28;20044;-60
2023/07/30 01:50:56;;;;;;;27.20;7.27;;;;;;;;;;5067698;28;20055;-59
2023/07/30 01:53:22;;;;;;;22.93;6.87;;;;;;;;;;5067704;28;20049;-59
2023/07/30 01:55:48;;;;;;;23.13;7.17;;;;;;;;;;5068122;28;20045;-59
2023/07/30 01:58:14;;;;;;;22.10;7.27;;;;;;;;;;5067810;28;20040;-59
2023/07/30 02:00:41;;;;;;;23.13;6.70;;;;;;;;;;5067272;28;20044;-59
2023/07/30 02:03:07;;;;;;;19.83;6.17;;;;;;;;;;5067063;28;20094;-59
2023/07/30 02:05:33;;;;;;;22.40;6.50;;;;;;;;;;5068082;28;20143;-59
2023/07/30 02:07:59;;;;;;;22.13;7.80;;;;;;;;;;5068055;28;20128;-59
2023/07/30 02:10:25;;;;;;;28.57;7.10;;;;;;;;;;5067566;28;20482;-59
2023/07/30 02:12:51;;;;;;;16.93;6.93;;;;;;;;;;5067796;28;20564;-60
2023/07/30 02:15:17;;;;;;;20.03;6.83;;;;;;;;;;5067581;28;20036;-59
2023/07/30 02:17:43;;;;;;;25.83;6.97;;;;;;;;;;5068063;28;20047;-59
2023/07/30 02:20:10;;;;;;;16.67;5.80;;;;;;;;;;5067504;28;20041;-59
2023/07/30 02:22:36;;;;;;;27.60;6.50;;;;;;;;;;5067176;28;20485;-59
2023/07/30 02:25:02;;;;;;;17.77;6.40;;;;;;;;;;5067695;28;20056;-59
2023/07/30 02:27:28;;;;;;;19.40;6.10;;;;;;;;;;5067527;28;20421;-59
2023/07/30 02:29:54;;;;;;;22.67;6.87;;;;;;;;;;5067759;28;20052;-59
2023/07/30 02:32:20;;;;;;;21.97;6.20;;;;;;;;;;5067405;28;20044;-59
2023/07/30 02:34:46;;;;;;;23.33;6.70;;;;;;;;;;5067301;28;20113;-60
2023/07/30 02:37:12;;;;;;;19.97;5.53;;;;;;;;;;5067003;28;20140;-59
2023/07/30 02:39:38;;;;;;;24.80;5.93;;;;;;;;;;5067459;28;20495;-59
2023/07/30 02:42:05;;;;;;;18.10;5.70;;;;;;;;;;5067612;28;20128;-59
2023/07/30 02:44:30;;;;;;;16.03;5.70;;;;;;;;;;5067055;28;20193;-59
2023/07/30 02:46:56;;;;;;;21.00;7.13;;;;;;;;;;5067424;28;20532;-60
2023/07/30 02:49:22;;;;;;;22.17;5.73;;;;;;;;;;5067373;28;20083;-59
2023/07/30 02:51:48;;;;;;;17.03;5.23;;;;;;;;;;5067465;28;20094;-60
2023/07/30 02:54:20;;;;;;;17.67;6.40;;;;;;;;;;5066688;28;20365;-59
2023/07/30 02:56:46;;;;;;;14.97;5.30;;;;;;;;;;5067185;28;20055;-59
2023/07/30 02:59:12;;;;;;;21.53;5.30;;;;;;;;;;5067817;28;20044;-59
2023/07/30 03:01:38;;;;;;;20.83;5.60;;;;;;;;;;5070697;28;20139;-59
2023/07/30 03:04:05;;;;;;;18.37;5.70;;;;;;;;;;5070774;28;20461;-60
2023/07/30 03:06:31;;;;;;;15.57;4.83;;;;;;;;;;5070758;28;20045;-59
2023/07/30 03:08:57;;;;;;;17.90;5.60;;;;;;;;;;5071024;28;20052;-59
2023/07/30 03:11:23;;;;;;;21.13;5.17;;;;;;;;;;5070810;28;20520;-59
2023/07/30 03:13:49;;;;;;;20.87;5.60;;;;;;;;;;5070409;28;20509;-59
2023/07/30 03:16:15;;;;;;;21.17;5.50;;;;;;;;;;5070746;28;20047;-59
2023/07/30 03:18:41;;;;;;;15.40;5.40;;;;;;;;;;5070600;28;20047;-59
2023/07/30 03:21:07;;;;;;;19.83;5.20;;;;;;;;;;5070473;28;20043;-59
2023/07/30 03:23:33;;;;;;;14.70;4.67;;;;;;;;;;5070405;28;20044;-60
2023/07/30 03:26:00;;;;;;;16.17;4.90;;;;;;;;;;5070038;28;20601;-59
2023/07/30 03:28:26;;;;;;;20.90;5.67;;;;;;;;;;5070535;28;20044;-59
2023/07/30 03:30:52;;;;;;;15.73;4.57;;;;;;;;;;5070392;28;20041;-59
2023/07/30 03:33:18;;;;;;;18.97;4.93;;;;;;;;;;5070355;28;20380;-59
2023/07/30 03:35:44;;;;;;;20.60;4.90;;;;;;;;;;5068708;28;20110;-59
2023/07/30 03:38:10;;;;;;;22.73;6.70;;;;;;;;;;5070274;28;20048;-59
2023/07/30 03:40:36;;;;;;;17.73;4.93;;;;;;;;;;5070291;28;20040;-59
2023/07/30 03:43:02;;;;;;;17.07;5.20;;;;;;;;;;5070082;28;20546;-60
2023/07/30 03:45:28;;;;;;;19.33;4.93;;;;;;;;;;5070235;28;20090;-59
2023/07/30 03:47:54;;;;;;;15.10;5.50;;;;;;;;;;5069874;28;20059;-60
2023/07/30 03:50:20;;;;;;;18.37;5.80;;;;;;;;;;5069895;28;20044;-59
2023/07/30 03:52:46;;;;;;;21.40;5.77;;;;;;;;;;5070228;28;20047;-59
2023/07/30 03:55:12;;;;;;;17.10;5.80;;;;;;;;;;5069877;28;20250;-59
2023/07/30 03:57:38;;;;;;;22.83;6.00;;;;;;;;;;5070107;28;20123;-59
2023/07/30 04:00:05;;;;;;;17.47;5.70;;;;;;;;;;5069548;28;20050;-59
2023/07/30 04:02:31;;;;;;;18.73;6.03;;;;;;;;;;5069463;28;20127;-59
2023/07/30 04:04:57;;;;;;;26.13;7.73;;;;;;;;;;5069448;28;20147;-59
2023/07/30 04:07:23;;;;;;;17.20;6.30;;;;;;;;;;5069526;28;20048;-59
2023/07/30 04:09:49;;;;;;;16.47;5.43;;;;;;;;;;5068832;28;20056;-60
2023/07/30 04:12:15;;;;;;;20.50;5.83;;;;;;;;;;5069190;28;20051;-59
2023/07/30 04:14:41;;;;;;;17.77;6.10;;;;;;;;;;5069595;28;20414;-59
2023/07/30 04:17:07;;;;;;;16.60;5.50;;;;;;;;;;5069261;28;20067;-59
2023/07/30 04:19:33;;;;;;;19.60;5.30;;;;;;;;;;5068885;28;20044;-59
2023/07/30 04:21:59;;;;;;;24.60;6.50;;;;;;;;;;5069105;28;20155;-59
2023/07/30 04:24:26;;;;;;;19.67;6.10;;;;;;;;;;5068570;28;20127;-59
2023/07/30 04:26:52;;;;;;;20.00;5.90;;;;;;;;;;5068955;28;20048;-60
2023/07/30 04:29:18;;;;;;;23.07;6.83;;;;;;;;;;5068611;28;20064;-59
2023/07/30 04:31:44;;;;;;;18.60;6.50;;;;;;;;;;5068728;28;20037;-59
2023/07/30 04:34:10;;;;;;;21.67;6.57;;;;;;;;;;5068812;28;20122;-60
2023/07/30 04:36:36;;;;;;;21.67;6.33;;;;;;;;;;5068509;28;20060;-59
2023/07/30 04:39:02;;;;;;;25.17;6.60;;;;;;;;;;5068769;28;20051;-59
2023/07/30 04:41:28;;;;;;;26.03;6.90;;;;;;;;;;5068858;28;20047;-59
2023/07/30 04:43:54;;;;;;;24.70;6.27;;;;;;;;;;5068276;28;20351;-59
2023/07/30 04:46:20;;;;;;;16.50;5.60;;;;;;;;;;5068367;28;20508;-60
2023/07/30 04:48:46;;;;;;;25.27;6.30;;;;;;;;;;5068850;28;20048;-59
2023/07/30 04:51:12;;;;;;;22.10;5.60;;;;;;;;;;5069015;28;20047;-60
2023/07/30 04:53:38;;;;;;;26.90;6.53;;;;;;;;;;5068577;28;20048;-60
2023/07/30 04:56:04;;;;;;;26.07;6.67;;;;;;;;;;5068101;28;20414;-60
2023/07/30 04:58:30;;;;;;;14.90;6.13;;;;;;;;;;5068522;28;20102;-60
2023/07/30 05:00:56;;;;;;;16.40;5.83;;;;;;;;;;5068307;28;20486;-60
2023/07/30 05:03:22;;;;;;;19.43;5.80;;;;;;;;;;5068592;28;20068;-60
2023/07/30 05:05:48;;;;;;;26.63;7.30;;;;;;;;;;5068742;28;20508;-60
2023/07/30 05:08:14;;;;;;;23.13;6.90;;;;;;;;;;5068013;28;20102;-60
2023/07/30 05:10:40;;;;;;;27.17;6.80;;;;;;;;;;5068557;28;20045;-59
2023/07/30 05:13:06;;;;;;;21.37;5.80;;;;;;;;;;5068206;28;20044;-59
2023/07/30 05:15:32;;;;;;;20.90;6.33;;;;;;;;;;5068168;28;20049;-60
2023/07/30 05:17:58;;;;;;;21.23;5.40;;;;;;;;;;5068425;28;20048;-59
2023/07/30 05:20:25;;;;;;;23.20;5.97;;;;;;;;;;5067714;28;20260;-59
2023/07/30 05:22:50;;;;;;;22.23;6.30;;;;;;;;;;5067591;28;20075;-60
2023/07/30 05:25:16;;;;;;;26.83;6.73;;;;;;;;;;5068239;28;20070;-60
2023/07/30 05:27:42;;;;;;;18.40;5.90;;;;;;;;;;5068517;28;20102;-60
2023/07/30 05:30:09;;;;;;;21.13;6.07;;;;;;;;;;5068035;28;20560;-60
2023/07/30 05:32:35;;;;;;;29.67;6.77;;;;;;;;;;5067447;28;20040;-63
2023/07/30 05:35:01;;;;;;;17.73;5.70;;;;;;;;;;5068147;28;20098;-61
2023/07/30 05:37:27;;;;;;;16.17;5.03;;;;;;;;;;5067897;28;20065;-62
2023/07/30 05:39:53;;;;;;;30.13;6.83;;;;;;;;;;5067610;28;20421;-61
2023/07/30 05:42:19;;;;;;;30.70;6.60;;;;;;;;;;5068125;28;20049;-61
2023/07/30 05:44:45;;;;;;;17.87;6.50;;;;;;;;;;5068219;28;20044;-62
2023/07/30 05:47:11;;;;;;;22.30;5.93;;;;;;;;;;5067890;28;20041;-62
2023/07/30 05:49:38;;;;;;;23.37;6.57;;;;;;;;;;5067793;28;20525;-61
2023/07/30 05:52:04;;;;;;;25.23;7.93;;;;;;;;;;5067479;28;20048;-62
2023/07/30 05:54:30;;;;;;;22.50;6.53;;;;;;;;;;5067644;28;20491;-62
2023/07/30 05:56:56;;;;;;;25.57;6.97;;;;;;;;;;5067700;28;20052;-62
2023/07/30 05:59:22;;;;;;;26.27;5.77;;;;;;;;;;5067555;28;20415;-61
2023/07/30 06:01:48;;;;;;;27.93;6.60;;;;;;;;;;5068049;28;20056;-62
2023/07/30 06:04:14;;;;;;;19.87;5.43;;;;;;;;;;5067045;28;20051;-62
2023/07/30 06:06:40;;;;;;;22.00;6.40;;;;;;;;;;5067616;28;20491;-62
2023/07/30 06:09:06;;;;;;;20.37;6.13;;;;;;;;;;5067786;28;20045;-62
2023/07/30 06:11:32;;;;;;;22.10;6.33;;;;;;;;;;5067711;28;20090;-62
2023/07/30 06:13:58;;;;;;;23.10;6.43;;;;;;;;;;5067887;28;20052;-62
2023/07/30 06:16:24;;;;;;;20.97;5.60;;;;;;;;;;5067589;28;20090;-61
2023/07/30 06:18:50;;;;;;;23.67;5.70;;;;;;;;;;5067074;28;20047;-61
2023/07/30 06:21:16;;;;;;;22.37;5.47;;;;;;;;;;5067254;28;20044;-62
2023/07/30 06:23:42;;;;;;;28.13;6.10;;;;;;;;;;5067643;28;20036;-62
2023/07/30 06:26:08;;;;;;;20.93;6.83;;;;;;;;;;5067315;28;20525;-62
2023/07/30 06:28:34;;;;;;;23.77;6.00;;;;;;;;;;5067359;28;20155;-62
2023/07/30 06:31:01;;;;;;;24.77;5.47;;;;;;;;;;5067270;28;20143;-62
2023/07/30 06:33:27;;;;;;;21.53;5.70;;;;;;;;;;5067573;28;20051;-62
2023/07/30 06:35:53;;;;;;;18.50;5.73;;;;;;;;;;5070633;28;20053;-62
2023/07/30 06:38:19;;;;;;;16.87;5.43;;;;;;;;;;5071070;28;20441;-62
2023/07/30 06:40:45;;;;;;;17.87;4.77;;;;;;;;;;5069911;28;20094;-62
2023/07/30 06:43:11;;;;;;;23.90;5.83;;;;;;;;;;5070349;28;20485;-62
2023/07/30 06:45:37;;;;;;;23.83;5.30;;;;;;;;;;5070871;28;20076;-62
2023/07/30 06:48:03;;;;;;;21.70;5.93;;;;;;;;;;5071006;28;20051;-62
2023/07/30 06:50:29;;;;;;;19.93;4.90;;;;;;;;;;5070996;28;20130;-62
2023/07/30 06:52:55;;;;;;;19.03;4.57;;;;;;;;;;5070965;28;20037;-62
2023/07/30 06:55:21;;;;;;;22.53;4.27;;;;;;;;;;5070100;28;20502;-62
2023/07/30 06:57:47;;;;;;;16.50;4.37;;;;;;;;;;5071013;28;20045;-62
2023/07/30 07:00:18;;;;;;;18.13;4.60;;;;;;;;;;5070713;28;20456;-62
2023/07/30 07:02:45;;;;;;;22.10;5.47;;;;;;;;;;5070774;28;20068;-62
2023/07/30 07:05:11;;;;;;;14.20;3.97;;;;;;;;;;5070489;28;20055;-62
2023/07/30 07:07:37;;;;;;;14.93;4.13;;;;;;;;;;5070473;28;20044;-62
2023/07/30 07:10:03;;;;;;;24.07;5.00;;;;;;;;;;5070585;28;20695;-60
2023/07/30 07:12:29;;;;;;;17.63;5.07;;;;;;;;;;5070591;28;20040;-62
2023/07/30 07:14:58;;;;;;;17.67;4.43;;;;;;;;;;5070700;28;20270;-62
2023/07/30 07:17:24;;;;;;;14.17;4.63;;;;;;;;;;5070524;28;20056;-62
2023/07/30 07:19:50;;;;;;;16.37;4.70;;;;;;;;;;5069146;28;20533;-61
2023/07/30 07:22:17;;;;;;;20.93;5.13;;;;;;;;;;5068861;28;20040;-60
2023/07/30 07:24:43;;;;;;;18.97;4.87;;;;;;;;;;5070270;28;20505;-60
2023/07/30 07:27:09;;;;;;;21.10;4.30;;;;;;;;;;5070127;28;20045;-60
2023/07/30 07:29:35;;;;;;;19.80;4.40;;;;;;;;;;5070243;28;20037;-59
2023/07/30 07:32:01;;;;;;;16.60;4.23;;;;;;;;;;5069740;28;20048;-60
2023/07/30 07:34:27;;;;;;;19.60;4.43;;;;;;;;;;5070335;28;20080;-60
2023/07/30 07:36:53;;;;;;;19.53;3.70;;;;;;;;;;5069625;28;20091;-60
2023/07/30 07:39:19;;;;;;;13.57;3.37;;;;;;;;;;5070008;28;20456;-60
2023/07/30 07:41:46;;;;;;;16.83;3.40;;;;;;;;;;5070229;28;20045;-60
2023/07/30 07:44:11;;;;;;;17.57;4.20;;;;;;;;;;5068461;28;20601;-60
2023/07/30 07:46:37;;;;;;;13.83;3.53;;;;;;;;;;5068883;28;20119;-60
2023/07/30 07:49:03;;;;;;;14.57;4.03;;;;;;;;;;5069827;28;20495;-60
2023/07/30 07:51:29;;;;;;;12.17;3.80;;;;;;;;;;5069865;28;20044;-60
2023/07/30 07:53:55;;;;;;;16.20;4.07;;;;;;;;;;5069659;28;20520;-60
2023/07/30 07:56:21;;;;;;;19.83;4.30;;;;;;;;;;5068371;28;20064;-60
2023/07/30 07:58:47;;;;;;;15.03;4.50;;;;;;;;;;5069808;28;20438;-60
2023/07/30 08:01:13;;;;;;;12.03;3.63;;;;;;;;;;5069040;28;20174;-60
2023/07/30 08:03:39;;;;;;;13.37;3.67;;;;;;;;;;5069831;28;20044;-60
2023/07/30 08:06:06;;;;;;;17.07;4.10;;;;;;;;;;5069582;28;20079;-60
2023/07/30 08:08:32;;;;;;;14.17;3.40;;;;;;;;;;5069646;28;20067;-60
2023/07/30 08:10:58;;;;;;;14.50;3.90;;;;;;;;;;5069566;28;20486;-60
2023/07/30 08:13:24;;;;;;;14.87;3.13;;;;;;;;;;5069387;28;20051;-60
2023/07/30 08:15:50;;;;;;;16.07;4.30;;;;;;;;;;5068926;28;20049;-60
2023/07/30 08:18:16;;;;;;;15.13;3.67;;;;;;;;;;5069246;28;20048;-60
2023/07/30 08:20:42;;;;;;;13.27;3.30;;;;;;;;;;5069290;28;20052;-60
2023/07/30 08:23:08;;;;;;;14.53;3.50;;;;;;;;;;5068366;28;20036;-60
2023/07/30 08:25:34;;;;;;;13.90;2.97;;;;;;;;;;5069104;28;20071;-60
2023/07/30 08:28:00;;;;;;;15.47;3.93;;;;;;;;;;5067790;28;20051;-60
2023/07/30 08:30:26;;;;;;;13.37;3.67;;;;;;;;;;5068966;28;20490;-61
2023/07/30 08:32:52;;;;;;;16.00;3.93;;;;;;;;;;5068266;28;20048;-61
2023/07/30 08:35:18;;;;;;;15.10;3.73;;;;;;;;;;5068837;28;20096;-61
2023/07/30 08:37:44;;;;;;;16.40;4.87;;;;;;;;;;5069025;28;20106;-60
2023/07/30 08:40:11;;;;;;;16.10;4.57;;;;;;;;;;5068468;28;20532;-61
2023/07/30 08:42:37;;;;;;;19.17;5.37;;;;;;;;;;5068801;28;20438;-62
2023/07/30 08:45:07;;;;;;;14.53;4.40;;;;;;;;;;5068739;28;20506;-61
2023/07/30 08:47:33;;;;;;;12.93;3.53;;;;;;;;;;5068384;28;20049;-61
2023/07/30 08:50:02;;;;;;;13.60;3.73;;;;;;;;;;5068852;28;20094;-61
2023/07/30 08:52:30;;;;;;;12.63;3.80;;;;;;;;;;5068685;28;20047;-61
2023/07/30 08:54:58;;;;;;;16.00;3.87;;;;;;;;;;5068656;28;20657;-61
2023/07/30 08:57:25;;;;;;;15.30;4.10;;;;;;;;;;5067540;28;20494;-61
2023/07/30 08:59:53;;;;;;;13.90;4.57;;;;;;;;;;5068376;28;20044;-61
2023/07/30 09:02:30;;;;;;;20.87;5.00;;;;;;;;;;5068325;28;20431;-62
2023/07/30 09:04:58;;;;;;;13.73;4.83;;;;;;;;;;5068424;28;20111;-62
2023/07/30 09:07:25;;;;;;;12.67;3.93;;;;;;;;;;5068294;28;20465;-62
2023/07/30 09:09:51;;;;;;;17.80;3.73;;;;;;;;;;5068140;28;20101;-62
2023/07/30 09:12:17;;;;;;;16.40;3.90;;;;;;;;;;5068192;28;20045;-62
2023/07/30 09:14:44;;;;;;;11.67;2.87;;;;;;;;;;5068111;28;20494;-62
2023/07/30 09:17:11;;;;;;;16.00;3.60;;;;;;;;;;5067155;28;20189;-62
2023/07/30 09:19:37;;;;;;;11.47;2.83;;;;;;;;;;5068108;28;20040;-62
2023/07/30 09:22:07;;;;;;;16.33;3.27;;;;;;;;;;5067615;28;20363;-62
2023/07/30 09:24:33;;;;;;;14.13;4.80;;;;;;;;;;5068019;28;20129;-62
2023/07/30 09:27:01;;;;;;;13.10;3.80;;;;;;;;;;5068096;28;20044;-62
2023/07/30 09:29:28;;;;;;;13.33;4.03;;;;;;;;;;5068124;28;20189;-62
2023/07/30 09:31:54;;;;;;;18.17;4.03;;;;;;;;;;5068035;28;20048;-62
2023/07/30 09:34:21;;;;;;;18.50;4.33;;;;;;;;;;5067415;28;20102;-62
2023/07/30 09:36:47;;;;;;;14.73;3.70;;;;;;;;;;5067885;28;20091;-62
2023/07/30 09:39:20;;;;;;;16.17;4.20;;;;;;;;;;5067680;28;20387;-62
2023/07/30 09:41:46;;;;;;;15.02;3.90;;;;;;;;;;5067868;28;20498;-61
2023/07/30 09:44:13;;;;;;;10.83;3.73;;;;;;;;;;5067695;28;20044;-61
2023/07/30 09:46:49;;;;;;;13.70;4.63;;;;;;;;;;5067207;28;20045;-61
2023/07/30 09:49:15;;;;;;;12.57;3.47;;;;;;;;;;5067592;28;20515;-61
2023/07/30 09:51:41;;;;;;;6.77;1.90;;;;;;;;;;5067929;28;21278;-61
2023/07/30 09:54:08;;;;;;;11.07;2.07;;;;;;;;;;5067737;28;20041;-61
2023/07/30 09:56:36;;;;;;;10.77;1.90;;;;;;;;;;5067346;28;20079;-62
2023/07/30 09:59:02;;;;;;;12.63;2.50;;;;;;;;;;5067433;28;20083;-62
2023/07/30 10:01:28;;;;;;;5.77;1.97;;;;;;;;;;5068192;28;20040;-61
2023/07/30 10:03:58;;;;;;;5.40;1.80;;;;;;;;;;5067749;28;20052;-62
2023/07/30 10:06:25;;;;;;;17.37;2.27;;;;;;;;;;5067649;28;20032;-61
2023/07/30 10:08:53;;;;;;;119.20;7.17;;;;;;;;;;5069271;28;20040;-64
2023/07/30 10:11:20;;;;;;;19.17;3.40;;;;;;;;;;5070586;28;20048;-64
2023/07/30 10:13:46;;;;;;;10.57;3.30;;;;;;;;;;5072121;28;20485;-64
2023/07/30 10:16:12;;;;;;;18.17;4.73;;;;;;;;;;5070775;28;20422;-64
2023/07/30 10:18:41;;;;;;;13.20;3.93;;;;;;;;;;5071867;28;20044;-65
2023/07/30 10:21:11;;;;;;;17.83;5.40;;;;;;;;;;5071420;28;20044;-64
2023/07/30 10:23:47;;;;;;;15.17;4.73;;;;;;;;;;5071563;28;20040;-65
2023/07/30 10:26:13;;;;;;;15.53;4.03;;;;;;;;;;5071266;28;20044;-65
2023/07/30 10:28:43;;;;;;;23.93;5.90;;;;;;;;;;5071465;28;20037;-65
2023/07/30 10:31:09;;;;;;;16.83;4.43;;;;;;;;;;5069820;28;20049;-65
2023/07/30 10:34:02;;;;;;;16.33;4.37;;;;;;;;;;5071385;28;20048;-65
2023/07/30 10:36:33;;;;;;;15.63;3.97;;;;;;;;;;5069079;28;20056;-65
2023/07/30 10:39:18;;;;;;;11.50;3.07;;;;;;;;;;5071236;28;20502;-65
2023/07/30 10:41:45;;;;;;;14.53;3.97;;;;;;;;;;5071168;28;20052;-65
2023/07/30 10:44:30;;;;;;;15.30;4.10;;;;;;;;;;5070858;28;20567;-65
2023/07/30 10:46:57;;;;;;;11.67;3.63;;;;;;;;;;5071211;28;20044;-65
2023/07/30 10:49:23;;;;;;;13.80;3.07;;;;;;;;;;5070538;28;20055;-66
2023/07/30 10:51:49;;;;;;;12.73;2.80;;;;;;;;;;5070629;28;20041;-65
2023/07/30 10:54:16;;;;;;;12.83;2.83;;;;;;;;;;5070858;28;21126;-65
2023/07/30 10:56:42;;;;;;;13.57;2.77;;;;;;;;;;5070949;28;20344;-64
2023/07/30 10:59:08;;;;;;;12.63;3.50;;;;;;;;;;5070445;28;20047;-64
2023/07/30 11:01:41;;;;;;;10.40;2.03;;;;;;;;;;5069323;28;20048;-64
2023/07/30 11:04:09;;;;;;;12.60;2.58;;;;;;;;;;5070301;28;20047;-63
2023/07/30 11:06:35;;;;;;;8.40;1.70;;;;;;;;;;5070843;28;20514;-62
2023/07/30 11:09:01;;;;;;;9.57;1.60;;;;;;;;;;5070580;28;20529;-61
2023/07/30 11:11:27;;;;;;;8.83;1.87;;;;;;;;;;5070644;28;20040;-62
2023/07/30 11:13:53;;;;;;;9.90;2.13;;;;;;;;;;5070953;28;20083;-61
2023/07/30 11:16:19;;;;;;;6.33;1.83;;;;;;;;;;5069834;28;20068;-61
2023/07/30 11:18:47;;;;;;;8.57;2.20;;;;;;;;;;5070461;28;20049;-61
2023/07/30 11:21:14;;;;;;;6.27;2.00;;;;;;;;;;5069617;28;20040;-60
2023/07/30 11:23:41;;;;;;;9.13;2.00;;;;;;;;;;5070382;28;20454;-62
2023/07/30 11:26:09;;;;;;;7.53;2.13;;;;;;;;;;5070386;28;20122;-62
2023/07/30 11:28:36;;;;;;;6.77;2.37;;;;;;;;;;5070395;28;20839;-61
2023/07/30 11:31:12;;;;;;;9.43;2.03;;;;;;;;;;5069641;28;20395;-61
2023/07/30 11:33:42;;;;;;;9.13;2.00;;;;;;;;;;5070137;28;20044;-61
2023/07/30 11:36:10;;;;;;;8.47;2.17;;;;;;;;;;5069874;28;20078;-61
2023/07/30 11:38:36;;;;;;;6.97;2.13;;;;;;;;;;5070070;28;20576;-60
2023/07/30 11:41:02;;;;;;;5.57;1.80;;;;;;;;;;5070110;28;20136;-61
2023/07/30 11:43:28;;;;;;;6.63;1.90;;;;;;;;;;5069571;28;20090;-61
2023/07/30 11:46:13;;;;;;;9.27;1.80;;;;;;;;;;5069931;28;20516;-61
2023/07/30 11:48:44;;;;;;;8.33;1.70;;;;;;;;;;5070301;28;20052;-61
2023/07/30 11:51:26;;;;;;;8.73;1.93;;;;;;;;;;5069494;28;20037;-62
2023/07/30 11:53:56;;;;;;;6.22;1.60;;;;;;;;;;5070198;28;20063;-61
2023/07/30 11:56:24;;;;;;;5.95;1.63;;;;;;;;;;5069999;28;20049;-61
2023/07/30 11:58:51;;;;;;;7.65;1.67;;;;;;;;;;5069985;28;20098;-61
2023/07/30 12:01:17;;;;;;;7.00;1.70;;;;;;;;;;5069713;28;20136;-62
2023/07/30 12:03:43;;;;;;;9.87;1.67;;;;;;;;;;5069445;28;20106;-61
2023/07/30 12:06:12;;;;;;;9.03;2.00;;;;;;;;;;5069715;28;20037;-59
2023/07/30 12:08:38;;;;;;;10.37;2.20;;;;;;;;;;5069680;28;20048;-60
2023/07/30 12:11:05;;;;;;;9.43;2.40;;;;;;;;;;5069524;28;20045;-60
2023/07/30 12:13:31;;;;;;;6.57;2.23;;;;;;;;;;5069223;28;20052;-60
2023/07/30 12:15:58;;;;;;;7.20;1.60;;;;;;;;;;5069484;28;20046;-60
2023/07/30 12:18:25;;;;;;;7.63;1.70;;;;;;;;;;5068963;28;20055;-60
2023/07/30 12:20:52;;;;;;;7.53;1.83;;;;;;;;;;5068971;28;20182;-60
2023/07/30 12:23:19;;;;;;;5.80;1.67;;;;;;;;;;5069132;28;20071;-60
2023/07/30 12:25:45;;;;;;;7.57;1.90;;;;;;;;;;5069014;28;20044;-60
2023/07/30 12:28:11;;;;;;;9.53;1.70;;;;;;;;;;5068901;28;20392;-60
2023/07/30 12:30:38;;;;;;;6.10;1.88;;;;;;;;;;5069236;28;20076;-60
2023/07/30 12:33:04;;;;;;;5.60;2.00;;;;;;;;;;5068782;28;20087;-60
2023/07/30 12:35:31;;;;;;;7.75;1.75;;;;;;;;;;5068404;28;20040;-60
2023/07/30 12:37:58;;;;;;;6.60;1.50;;;;;;;;;;5068762;28;20056;-61
2023/07/30 12:40:24;;;;;;;6.10;1.70;;;;;;;;;;5068673;28;20433;-61
2023/07/30 12:42:50;;;;;;;9.03;1.67;;;;;;;;;;5067502;28;20131;-61
2023/07/30 12:45:16;;;;;;;6.67;1.73;;;;;;;;;;5068765;28;20098;-62
2023/07/30 12:47:42;;;;;;;9.87;1.80;;;;;;;;;;5068195;28;20052;-61
2023/07/30 12:50:08;;;;;;;9.83;2.10;;;;;;;;;;5068407;28;20501;-61
2023/07/30 12:52:34;;;;;;;11.03;1.80;;;;;;;;;;5068757;28;20047;-61
2023/07/30 12:55:04;;;;;;;9.33;1.67;;;;;;;;;;5068550;28;20047;-61
2023/07/30 12:57:30;;;;;;;10.37;2.87;;;;;;;;;;5068932;28;20109;-61
2023/07/30 12:59:57;;;;;;;8.93;1.87;;;;;;;;;;5068937;28;20041;-61
2023/07/30 13:02:23;;;;;;;13.73;2.37;;;;;;;;;;5068038;28;20045;-61
2023/07/30 13:04:49;;;;;;;8.07;2.20;;;;;;;;;;5068471;28;20521;-61
2023/07/30 13:07:15;;;;;;;10.70;1.97;;;;;;;;;;5067274;28;20131;-61
2023/07/30 13:09:41;;;;;;;10.33;1.87;;;;;;;;;;5068469;28;20051;-61
2023/07/30 13:12:07;;;;;;;7.07;1.80;;;;;;;;;;5067882;28;20064;-61
2023/07/30 13:14:33;;;;;;;9.40;1.97;;;;;;;;;;5068490;28;20048;-62
2023/07/30 13:16:59;;;;;;;10.00;1.90;;;;;;;;;;5068165;28;20045;-61
2023/07/30 13:19:28;;;;;;;10.03;1.90;;;;;;;;;;5068191;28;20045;-62
2023/07/30 13:21:54;;;;;;;5.63;2.00;;;;;;;;;;5068384;28;20127;-61
2023/07/30 13:24:20;;;;;;;11.23;2.30;;;;;;;;;;5067639;28;20083;-61
2023/07/30 13:26:46;;;;;;;9.20;1.80;;;;;;;;;;5068092;28;20080;-62
2023/07/30 13:29:12;;;;;;;5.57;1.30;;;;;;;;;;5068235;28;20507;-61
2023/07/30 13:31:38;;;;;;;8.33;2.07;;;;;;;;;;5068046;28;20052;-62
2023/07/30 13:34:04;;;;;;;7.73;1.67;;;;;;;;;;5067631;28;20053;-62
2023/07/30 13:36:30;;;;;;;8.18;1.90;;;;;;;;;;5068010;28;20095;-62
2023/07/30 13:38:56;;;;;;;8.15;1.95;;;;;;;;;;5068007;28;20135;-62
2023/07/30 13:41:22;;;;;;;8.95;1.73;;;;;;;;;;5068064;28;20052;-62
2023/07/30 13:43:48;;;;;;;8.97;1.83;;;;;;;;;;5067422;28;20048;-62
2023/07/30 13:46:14;;;;;;;7.05;2.15;;;;;;;;;;5067772;28;20053;-62
2023/07/30 13:48:40;;;;;;;12.77;2.07;;;;;;;;;;5067649;28;20410;-62
2023/07/30 13:51:06;;;;;;;8.87;2.07;;;;;;;;;;5067847;28;20045;-61
2023/07/30 13:53:34;;;;;;;12.53;2.50;;;;;;;;;;5067836;28;20047;-61
2023/07/30 13:56:01;;;;;;;11.43;1.90;;;;;;;;;;5067340;28;20502;-61
2023/07/30 13:58:27;;;;;;;9.60;2.50;;;;;;;;;;5067656;28;20052;-61
2023/07/30 14:00:55;;;;;;;7.80;1.73;;;;;;;;;;5067858;28;20048;-61
2023/07/30 14:03:21;;;;;;;9.53;1.83;;;;;;;;;;5068066;28;20560;-62
2023/07/30 14:05:47;;;;;;;7.97;1.70;;;;;;;;;;5067705;28;20044;-62
2023/07/30 14:08:13;;;;;;;9.37;1.97;;;;;;;;;;5067865;28;20041;-62
2023/07/30 14:10:39;;;;;;;6.53;1.67;;;;;;;;;;5067282;28;20041;-62
2023/07/30 14:13:05;;;;;;;5.10;1.40;;;;;;;;;;5067538;28;20051;-62
2023/07/30 14:15:32;;;;;;;4.43;1.27;;;;;;;;;;5068037;28;20044;-61
2023/07/30 14:17:58;;;;;;;3.90;1.00;;;;;;;;;;5067820;28;20040;-61
2023/07/30 14:20:24;;;;;;;3.70;1.07;;;;;;;;;;5067468;28;20052;-62
2023/07/30 14:22:51;;;;;;;4.23;1.10;;;;;;;;;;5067383;28;20044;-61
2023/07/30 14:25:17;;;;;;;5.53;1.30;;;;;;;;;;5067016;28;20406;-62
2023/07/30 14:27:43;;;;;;;5.23;1.50;;;;;;;;;;5067531;28;20548;-62
2023/07/30 14:30:10;;;;;;;5.20;1.20;;;;;;;;;;5067082;28;20113;-62